Time;durP1;ratioP1;P1;durP2;ratioP2;P2;SDS_P1;SDS_P2;PMS_P1;PMS_P2;Temp;Humidity;BMP_temperature;BMP_pressure;BME280_temperature;BME280_humidity;BME280_pressure;Samples;Min_cycle;Max_cycle;Signal;HPM_P1;HPM_P2
2022/07/17 00:01:24;;;;;;;2.63;1.80;;;12.70;99.90;;;;;;5109381;28;20204;-51
2022/07/17 00:03:52;;;;;;;4.07;1.73;;;12.70;99.90;;;;;;5114232;28;20264;-51
2022/07/17 00:06:21;;;;;;;6.07;2.00;;;12.70;99.90;;;;;;5113416;28;20310;-51
2022/07/17 00:08:49;;;;;;;2.67;1.73;;;12.60;99.90;;;;;;5113490;28;20671;-51
2022/07/17 00:11:17;;;;;;;3.53;1.50;;;12.60;99.90;;;;;;5113556;28;20199;-51
2022/07/17 00:13:46;;;;;;;5.23;1.73;;;12.60;99.90;;;;;;5113805;28;21241;-51
2022/07/17 00:16:15;;;;;;;2.47;1.43;;;12.60;99.90;;;;;;5113903;28;20203;-52
2022/07/17 00:18:43;;;;;;;4.30;2.07;;;12.50;99.90;;;;;;5099660;28;20199;-51
2022/07/17 00:21:12;;;;;;;2.93;1.57;;;12.40;99.90;;;;;;5113817;28;20199;-51
2022/07/17 00:23:40;;;;;;;3.67;1.83;;;12.40;99.90;;;;;;5113201;28;20618;-51
2022/07/17 00:26:09;;;;;;;9.17;2.20;;;12.30;99.90;;;;;;5113753;28;20321;-51
2022/07/17 00:28:37;;;;;;;3.80;1.77;;;12.30;99.90;;;;;;5113888;28;20207;-51
2022/07/17 00:31:07;;;;;;;2.83;1.70;;;12.30;99.90;;;;;;5113341;28;20252;-52
2022/07/17 00:33:35;;;;;;;2.47;1.50;;;12.30;99.90;;;;;;5113415;28;20207;-52
2022/07/17 00:36:04;;;;;;;2.60;1.63;;;12.20;99.90;;;;;;5113128;28;20348;-51
2022/07/17 00:38:32;;;;;;;3.73;1.80;;;12.10;99.90;;;;;;5112953;28;20207;-52
2022/07/17 00:41:00;;;;;;;2.30;1.47;;;12.10;99.90;;;;;;5113248;28;20676;-52
2022/07/17 00:43:28;;;;;;;4.97;2.23;;;12.10;99.90;;;;;;5113423;28;20257;-52
2022/07/17 00:45:58;;;;;;;2.47;1.80;;;12.10;99.90;;;;;;5113172;28;20272;-52
2022/07/17 00:48:28;;;;;;;6.73;2.00;;;12.10;99.90;;;;;;5114052;28;20253;-52
2022/07/17 00:50:57;;;;;;;3.40;1.87;;;12.10;99.90;;;;;;5113227;28;20199;-52
2022/07/17 00:53:25;;;;;;;4.73;1.93;;;12.10;99.90;;;;;;5112873;28;20279;-52
2022/07/17 00:55:54;;;;;;;6.33;1.90;;;12.10;99.90;;;;;;5113071;28;20224;-51
2022/07/17 00:58:24;;;;;;;8.03;1.83;;;12.10;99.90;;;;;;5113042;28;20208;-52
2022/07/17 01:00:54;;;;;;;4.93;1.97;;;12.00;99.90;;;;;;5112954;28;20664;-52
2022/07/17 01:03:24;;;;;;;3.40;2.07;;;12.00;99.90;;;;;;5112349;28;20231;-52
2022/07/17 01:05:54;;;;;;;5.13;2.23;;;11.90;99.90;;;;;;5112659;28;20235;-51
2022/07/17 01:08:22;;;;;;;4.60;1.90;;;11.80;99.90;;;;;;5112322;28;20260;-51
2022/07/17 01:10:50;;;;;;;2.77;1.60;;;11.70;99.90;;;;;;5112685;28;20211;-51
2022/07/17 01:13:19;;;;;;;4.57;1.90;;;11.70;99.90;;;;;;5112950;28;20261;-52
2022/07/17 01:15:48;;;;;;;4.70;1.87;;;11.60;99.90;;;;;;5111950;28;20223;-52
2022/07/17 01:18:16;;;;;;;3.17;1.80;;;11.60;99.90;;;;;;5112357;28;20294;-51
2022/07/17 01:20:48;;;;;;;2.13;1.60;;;11.50;99.90;;;;;;5112555;28;20593;-52
2022/07/17 01:23:19;;;;;;;2.93;1.60;;;11.50;99.90;;;;;;5112264;28;20212;-52
2022/07/17 01:25:47;;;;;;;3.23;1.80;;;11.60;99.90;;;;;;5112021;28;20276;-52
2022/07/17 01:28:16;;;;;;;4.50;2.13;;;11.60;99.90;;;;;;5112280;28;20556;-52
2022/07/17 01:30:49;;;;;;;3.40;1.90;;;11.60;99.90;;;;;;5112667;28;20210;-52
2022/07/17 01:33:18;;;;;;;6.33;1.93;;;11.50;99.90;;;;;;5112430;28;20211;-52
2022/07/17 01:35:46;;;;;;;5.90;2.07;;;11.50;99.90;;;;;;5112278;28;20223;-52
2022/07/17 01:38:14;;;;;;;3.87;1.80;;;11.50;99.90;;;;;;5112035;28;20264;-52
2022/07/17 01:40:44;;;;;;;3.40;2.07;;;11.50;99.90;;;;;;5112067;28;20207;-52
2022/07/17 01:43:12;;;;;;;4.80;1.93;;;11.40;99.90;;;;;;5112096;28;20249;-52
2022/07/17 01:45:40;;;;;;;2.83;1.83;;;11.40;99.90;;;;;;5111465;28;20230;-52
2022/07/17 01:48:08;;;;;;;4.10;2.00;;;11.40;99.90;;;;;;5112017;28;20668;-52
2022/07/17 01:50:37;;;;;;;4.77;2.00;;;11.40;99.90;;;;;;5112293;28;20216;-52
2022/07/17 01:53:05;;;;;;;4.60;1.80;;;11.30;99.90;;;;;;5111307;28;20207;-52
2022/07/17 01:55:33;;;;;;;2.30;1.73;;;11.30;99.90;;;;;;5111257;28;20703;-52
2022/07/17 01:58:02;;;;;;;6.00;2.20;;;11.30;99.90;;;;;;5111794;28;20649;-52
2022/07/17 02:00:30;;;;;;;5.73;2.00;;;11.20;99.90;;;;;;5112005;28;20366;-52
2022/07/17 02:02:58;;;;;;;7.23;2.10;;;11.20;99.90;;;;;;5111457;28;20245;-52
2022/07/17 02:05:26;;;;;;;5.27;2.10;;;11.20;99.90;;;;;;5111303;28;20227;-52
2022/07/17 02:07:54;;;;;;;3.97;1.77;;;11.20;99.90;;;;;;5111780;28;20200;-52
2022/07/17 02:10:23;;;;;;;5.57;2.10;;;11.10;99.90;;;;;;5110886;28;20203;-52
2022/07/17 02:12:51;;;;;;;6.70;2.17;;;11.10;99.90;;;;;;5111488;28;20244;-52
2022/07/17 02:15:20;;;;;;;6.90;2.17;;;11.10;99.90;;;;;;5110744;28;20223;-52
2022/07/17 02:17:48;;;;;;;5.43;1.97;;;11.10;99.90;;;;;;5111809;28;20211;-52
2022/07/17 02:20:17;;;;;;;3.73;1.80;;;11.00;99.90;;;;;;5111038;28;20261;-52
2022/07/17 02:22:45;;;;;;;4.27;2.00;;;11.00;99.90;;;;;;5110027;28;20214;-52
2022/07/17 02:25:14;;;;;;;4.37;1.67;;;11.00;99.90;;;;;;5110456;28;20228;-52
2022/07/17 02:27:43;;;;;;;3.27;1.53;;;11.00;99.90;;;;;;5110962;28;20223;-52
2022/07/17 02:30:13;;;;;;;2.33;1.67;;;11.00;99.90;;;;;;5111018;28;20217;-52
2022/07/17 02:32:43;;;;;;;3.27;1.93;;;10.90;99.90;;;;;;5110960;28;20271;-52
2022/07/17 02:35:12;;;;;;;4.90;1.87;;;10.90;99.90;;;;;;5110252;28;20290;-52
2022/07/17 02:37:42;;;;;;;3.60;1.90;;;10.80;99.90;;;;;;5110520;28;20196;-52
2022/07/17 02:40:11;;;;;;;3.43;1.73;;;10.80;99.90;;;;;;5110664;28;20676;-52
2022/07/17 02:42:39;;;;;;;6.43;2.03;;;10.80;99.90;;;;;;5110948;28;20664;-52
2022/07/17 02:45:08;;;;;;;6.27;2.00;;;10.70;99.90;;;;;;5110629;28;20227;-52
2022/07/17 02:47:37;;;;;;;2.83;1.90;;;10.70;99.90;;;;;;5108797;28;20276;-52
2022/07/17 02:50:09;;;;;;;2.70;1.80;;;10.80;99.90;;;;;;5110935;28;20215;-52
2022/07/17 02:52:37;;;;;;;3.73;1.83;;;10.80;99.90;;;;;;5097324;28;20203;-52
2022/07/17 02:55:07;;;;;;;3.47;1.67;;;10.80;99.90;;;;;;5110404;28;20219;-52
2022/07/17 02:57:35;;;;;;;3.43;1.90;;;10.70;99.90;;;;;;5110857;28;20248;-52
2022/07/17 03:00:05;;;;;;;6.83;2.43;;;10.70;99.90;;;;;;5110633;28;20668;-52
2022/07/17 03:02:33;;;;;;;4.60;2.17;;;10.60;99.90;;;;;;5110005;28;20242;-52
2022/07/17 03:05:01;;;;;;;4.30;1.93;;;10.60;99.90;;;;;;5110709;28;20231;-52
2022/07/17 03:07:31;;;;;;;3.70;1.93;;;10.60;99.90;;;;;;5109895;28;20220;-52
2022/07/17 03:09:59;;;;;;;3.77;1.77;;;10.60;99.90;;;;;;5109916;28;20207;-51
2022/07/17 03:12:27;;;;;;;4.43;2.00;;;10.60;99.90;;;;;;5110564;28;20669;-52
2022/07/17 03:14:55;;;;;;;7.03;1.90;;;10.60;99.90;;;;;;5109343;28;20223;-52
2022/07/17 03:17:24;;;;;;;6.73;2.10;;;10.60;99.90;;;;;;5110516;28;20664;-52
2022/07/17 03:19:52;;;;;;;4.70;1.87;;;10.60;99.90;;;;;;5110359;28;20219;-52
2022/07/17 03:22:20;;;;;;;3.53;1.77;;;10.60;99.90;;;;;;5120816;28;20248;-51
2022/07/17 03:24:49;;;;;;;4.93;1.93;;;10.60;99.90;;;;;;5120273;28;20287;-51
2022/07/17 03:27:18;;;;;;;5.57;1.90;;;10.50;99.90;;;;;;5112763;28;20223;-51
2022/07/17 03:29:46;;;;;;;7.63;2.07;;;10.50;99.90;;;;;;5110155;28;20203;-51
2022/07/17 03:32:15;;;;;;;3.33;1.80;;;10.40;99.90;;;;;;5110094;28;20204;-52
2022/07/17 03:34:43;;;;;;;4.83;2.00;;;10.40;99.90;;;;;;5110014;28;20321;-51
2022/07/17 03:37:11;;;;;;;3.67;1.83;;;10.40;99.90;;;;;;5108952;28;20204;-51
2022/07/17 03:39:40;;;;;;;4.60;1.90;;;10.40;99.90;;;;;;5109540;28;20204;-52
2022/07/17 03:42:09;;;;;;;2.43;1.80;;;10.40;99.90;;;;;;5109905;28;20611;-51
2022/07/17 03:44:37;;;;;;;3.90;1.90;;;10.50;99.90;;;;;;5109568;28;20304;-52
2022/07/17 03:47:05;;;;;;;6.50;2.47;;;10.40;99.90;;;;;;5109669;28;20965;-51
2022/07/17 03:49:33;;;;;;;4.77;2.03;;;10.50;99.90;;;;;;5109409;28;20340;-52
2022/07/17 03:52:01;;;;;;;5.10;1.87;;;10.50;99.90;;;;;;5109702;28;20617;-52
2022/07/17 03:54:29;;;;;;;3.90;1.73;;;10.40;99.90;;;;;;5109367;28;20239;-51
2022/07/17 03:56:57;;;;;;;4.70;1.53;;;10.50;99.90;;;;;;5109594;28;20204;-52
2022/07/17 03:59:27;;;;;;;5.13;1.83;;;10.50;99.90;;;;;;5109950;28;20208;-52
2022/07/17 04:01:56;;;;;;;3.37;1.87;;;10.50;99.90;;;;;;5109401;28;20196;-51
2022/07/17 04:04:24;;;;;;;4.37;1.90;;;10.50;99.90;;;;;;5109487;28;20754;-52
2022/07/17 04:06:52;;;;;;;3.93;2.00;;;10.50;99.90;;;;;;5109113;28;20231;-52
2022/07/17 04:09:20;;;;;;;2.50;1.60;;;10.50;99.90;;;;;;5109043;28;20621;-52
2022/07/17 04:11:48;;;;;;;2.87;1.83;;;10.50;99.90;;;;;;5108783;28;20676;-52
2022/07/17 04:14:16;;;;;;;4.57;2.27;;;10.60;99.90;;;;;;5109495;28;20223;-52
2022/07/17 04:16:45;;;;;;;3.20;1.80;;;10.60;99.90;;;;;;5109114;28;20195;-52
2022/07/17 04:19:13;;;;;;;8.03;2.10;;;10.70;99.90;;;;;;5109992;28;20238;-52
2022/07/17 04:21:41;;;;;;;2.73;1.80;;;11.00;99.90;;;;;;5109177;28;20252;-52
2022/07/17 04:24:09;;;;;;;4.33;1.53;;;12.00;99.90;;;;;;5109656;28;20219;-51
2022/07/17 04:26:38;;;;;;;5.63;1.70;;;13.10;99.90;;;;;;5108944;28;20207;-52
2022/07/17 04:29:06;;;;;;;3.73;1.37;;;13.80;99.90;;;;;;5109392;28;20208;-52
2022/07/17 04:31:34;;;;;;;3.33;1.60;;;14.30;99.90;;;;;;5109343;28;20207;-52
2022/07/17 04:34:03;;;;;;;4.27;1.83;;;14.80;99.90;;;;;;5108507;28;20292;-52
2022/07/17 04:36:31;;;;;;;1.63;1.50;;;15.30;99.90;;;;;;5109363;28;20264;-53
2022/07/17 04:38:59;;;;;;;3.67;1.80;;;15.70;99.90;;;;;;5109480;28;20612;-52
2022/07/17 04:41:28;;;;;;;5.18;2.00;;;16.00;99.90;;;;;;5109502;28;20207;-52
2022/07/17 04:43:56;;;;;;;3.58;1.75;;;16.30;99.90;;;;;;5108928;28;21986;-52
2022/07/17 04:46:24;;;;;;;3.53;1.73;;;16.70;99.90;;;;;;5108820;28;20219;-52
2022/07/17 04:48:52;;;;;;;3.08;1.50;;;17.10;99.90;;;;;;5111498;28;20235;-52
2022/07/17 04:51:22;;;;;;;3.33;1.60;;;17.40;99.90;;;;;;5113018;28;20211;-52
2022/07/17 04:53:50;;;;;;;3.55;1.60;;;17.60;99.90;;;;;;5112795;28;20264;-52
2022/07/17 04:56:18;;;;;;;2.40;1.70;;;18.00;99.90;;;;;;5113152;28;20253;-53
2022/07/17 04:58:46;;;;;;;4.25;1.42;;;18.20;99.90;;;;;;5108987;28;20200;-52
2022/07/17 05:01:14;;;;;;;3.30;1.58;;;18.50;99.90;;;;;;5105811;28;20238;-52
2022/07/17 05:03:42;;;;;;;4.90;2.00;;;19.10;99.90;;;;;;5094670;28;20197;-52
2022/07/17 05:06:11;;;;;;;3.20;1.90;;;19.30;99.90;;;;;;5093083;28;20253;-52
2022/07/17 05:08:40;;;;;;;3.85;1.85;;;19.10;99.90;;;;;;5094373;28;20554;-53
2022/07/17 05:11:08;;;;;;;3.83;1.70;;;19.30;99.90;;;;;;5094831;28;20204;-53
2022/07/17 05:13:36;;;;;;;5.60;2.13;;;19.30;99.90;;;;;;5098389;28;20200;-52
2022/07/17 05:16:05;;;;;;;3.55;1.70;;;19.40;99.90;;;;;;5095990;28;20586;-53
2022/07/17 05:18:33;;;;;;;4.30;1.75;;;19.60;99.90;;;;;;5104674;28;21135;-53
2022/07/17 05:21:01;;;;;;;5.57;1.98;;;19.80;99.90;;;;;;5093739;28;20704;-53
2022/07/17 05:23:29;;;;;;;3.70;2.08;;;20.20;99.90;;;;;;5095162;28;20657;-53
2022/07/17 05:25:59;;;;;;;3.97;2.05;;;20.20;99.90;;;;;;5091171;28;20282;-52
2022/07/17 05:28:27;;;;;;;3.90;1.75;;;20.40;99.90;;;;;;5093087;28;20765;-53
2022/07/17 05:30:55;;;;;;;3.45;2.00;;;20.60;99.90;;;;;;5095979;28;20200;-52
2022/07/17 05:33:23;;;;;;;3.05;1.77;;;20.70;99.90;;;;;;5094681;28;20291;-53
2022/07/17 05:35:51;;;;;;;4.82;1.60;;;20.80;99.90;;;;;;5093553;28;20726;-53
2022/07/17 05:38:19;;;;;;;2.90;1.70;;;20.70;99.90;;;;;;5092961;28;20200;-52
2022/07/17 05:40:47;;;;;;;3.25;1.60;;;20.80;99.90;;;;;;5092992;28;20205;-52
2022/07/17 05:43:16;;;;;;;4.72;2.10;;;20.90;99.90;;;;;;5092629;28;20731;-53
2022/07/17 05:45:45;;;;;;;3.97;1.70;;;20.80;99.90;;;;;;5092073;28;20909;-52
2022/07/17 05:48:13;;;;;;;3.47;1.70;;;20.90;99.90;;;;;;5092767;28;20227;-53
2022/07/17 05:50:41;;;;;;;4.78;1.58;;;20.60;99.90;;;;;;5107013;28;20212;-52
2022/07/17 05:53:09;;;;;;;3.40;1.75;;;20.90;99.90;;;;;;5111406;28;20208;-52
2022/07/17 05:55:37;;;;;;;3.58;1.50;;;20.90;99.90;;;;;;5110826;28;20257;-53
2022/07/17 05:58:05;;;;;;;4.38;1.80;;;20.80;99.90;;;;;;5111446;28;20626;-53
2022/07/17 06:00:35;;;;;;;4.82;2.30;;;21.10;99.90;;;;;;5110527;28;20260;-53
2022/07/17 06:03:03;;;;;;;5.70;2.08;;;21.10;99.90;;;;;;5110911;28;20207;-53
2022/07/17 06:05:32;;;;;;;5.10;1.52;;;20.90;99.90;;;;;;5111005;28;20223;-52
2022/07/17 06:08:00;;;;;;;2.60;1.60;;;21.00;99.90;;;;;;5110773;28;20223;-52
2022/07/17 06:10:29;;;;;;;3.33;1.75;;;20.90;99.90;;;;;;5111184;28;20257;-53
2022/07/17 06:12:57;;;;;;;3.92;1.90;;;21.10;99.90;;;;;;5111101;28;20253;-52
2022/07/17 06:15:26;;;;;;;2.53;1.50;;;21.50;99.90;;;;;;5110399;28;20768;-53
2022/07/17 06:17:55;;;;;;;4.63;1.88;;;22.10;99.90;;;;;;5111217;28;20249;-53
2022/07/17 06:20:23;;;;;;;2.70;1.83;;;22.50;99.90;;;;;;5110314;28;20227;-53
2022/07/17 06:22:51;;;;;;;4.25;1.80;;;23.00;99.90;;;;;;5110436;28;20935;-53
2022/07/17 06:25:19;;;;;;;4.70;2.10;;;23.30;99.50;;;;;;5110479;28;20861;-53
2022/07/17 06:27:47;;;;;;;5.90;2.20;;;23.40;99.40;;;;;;5110673;28;20207;-53
2022/07/17 06:30:16;;;;;;;3.35;1.58;;;23.40;99.00;;;;;;5110678;28;20624;-53
2022/07/17 06:32:45;;;;;;;3.92;1.88;;;23.80;98.80;;;;;;5109974;28;20208;-52
2022/07/17 06:35:14;;;;;;;2.67;1.92;;;24.20;98.70;;;;;;5110314;28;20223;-52
2022/07/17 06:37:42;;;;;;;5.68;1.83;;;24.50;97.90;;;;;;5110325;28;20245;-54
2022/07/17 06:40:11;;;;;;;5.65;1.80;;;24.80;97.50;;;;;;5110070;28;20245;-52
2022/07/17 06:42:39;;;;;;;5.32;1.80;;;25.20;97.60;;;;;;5110497;28;20268;-52
2022/07/17 06:45:08;;;;;;;2.78;1.58;;;25.20;96.00;;;;;;5109441;28;20280;-52
2022/07/17 06:47:38;;;;;;;4.93;1.60;;;25.00;94.80;;;;;;5110629;28;20253;-53
2022/07/17 06:50:08;;;;;;;6.53;1.83;;;25.30;95.10;;;;;;5114058;28;20279;-52
2022/07/17 06:52:37;;;;;;;3.40;1.58;;;25.50;94.90;;;;;;5115070;28;20212;-52
2022/07/17 06:55:13;;;;;;;5.05;1.80;;;25.50;94.50;;;;;;5109058;28;20219;-52
2022/07/17 06:57:41;;;;;;;4.50;1.65;;;25.50;94.80;;;;;;5091253;28;20217;-53
2022/07/17 07:00:10;;;;;;;5.55;1.52;;;25.80;94.10;;;;;;5097196;28;20200;-53
2022/07/17 07:02:38;;;;;;;3.92;1.70;;;25.80;93.80;;;;;;5095372;28;20250;-53
2022/07/17 07:05:07;;;;;;;5.72;1.58;;;25.90;93.40;;;;;;5109667;28;20255;-53
2022/07/17 07:07:36;;;;;;;3.88;1.70;;;25.90;93.30;;;;;;5110854;28;20207;-53
2022/07/17 07:10:05;;;;;;;3.88;1.77;;;25.80;93.50;;;;;;5110394;28;20585;-52
2022/07/17 07:12:33;;;;;;;3.95;1.50;;;26.00;93.40;;;;;;5109824;28;20256;-53
2022/07/17 07:15:02;;;;;;;5.55;1.92;;;26.10;92.90;;;;;;5108849;28;20700;-53
2022/07/17 07:17:35;;;;;;;4.30;1.50;;;26.00;92.50;;;;;;5104260;28;20272;-52
2022/07/17 07:20:04;;;;;;;3.63;1.58;;;26.00;92.50;;;;;;5105849;28;20211;-53
2022/07/17 07:22:32;;;;;;;6.07;1.88;;;26.10;91.90;;;;;;5107566;28;20248;-53
2022/07/17 07:25:02;;;;;;;6.40;1.70;;;26.30;91.00;;;;;;5107426;28;20318;-53
2022/07/17 07:27:31;;;;;;;3.97;1.20;;;26.30;90.70;;;;;;5104669;28;20223;-53
2022/07/17 07:29:59;;;;;;;5.32;1.80;;;26.40;90.70;;;;;;5107125;28;20814;-52
2022/07/17 07:32:27;;;;;;;4.13;1.90;;;26.40;90.60;;;;;;5107224;28;20203;-53
2022/07/17 07:34:55;;;;;;;5.97;1.90;;;26.60;90.30;;;;;;5107956;28;20222;-53
2022/07/17 07:37:23;;;;;;;4.35;2.00;;;26.60;89.80;;;;;;5109301;28;20621;-53
2022/07/17 07:39:51;;;;;;;4.80;1.83;;;26.90;87.20;;;;;;5108885;28;20249;-53
2022/07/17 07:42:21;;;;;;;6.00;2.00;;;27.00;88.10;;;;;;5106010;28;20204;-53
2022/07/17 07:44:49;;;;;;;2.90;1.80;;;27.00;89.00;;;;;;5108493;28;20762;-53
2022/07/17 07:47:17;;;;;;;5.47;1.70;;;27.10;89.60;;;;;;5109523;28;20211;-52
2022/07/17 07:49:45;;;;;;;7.88;1.80;;;27.10;87.90;;;;;;5109182;28;20223;-53
2022/07/17 07:52:13;;;;;;;4.22;1.90;;;27.10;88.20;;;;;;5108857;28;20684;-53
2022/07/17 07:54:41;;;;;;;5.57;2.08;;;27.10;86.10;;;;;;5104008;28;20219;-53
2022/07/17 07:57:09;;;;;;;3.15;1.75;;;26.90;87.10;;;;;;5108983;28;20200;-53
2022/07/17 07:59:39;;;;;;;5.50;1.90;;;26.90;84.60;;;;;;5109116;28;20204;-52
2022/07/17 08:02:08;;;;;;;4.43;1.73;;;27.00;85.60;;;;;;5106691;28;20208;-53
2022/07/17 08:04:36;;;;;;;7.90;1.80;;;27.10;85.40;;;;;;5107511;28;20219;-54
2022/07/17 08:07:04;;;;;;;6.40;1.98;;;27.20;85.40;;;;;;5099654;28;20211;-54
2022/07/17 08:09:32;;;;;;;5.10;1.55;;;27.30;83.20;;;;;;5103551;28;20251;-53
2022/07/17 08:12:00;;;;;;;5.22;1.70;;;27.20;81.90;;;;;;5107235;28;20268;-53
2022/07/17 08:14:49;;;;;;;5.07;1.88;;;26.90;82.60;;;;;;5104883;28;20227;-53
2022/07/17 08:17:17;;;;;;;4.85;1.70;;;26.60;82.70;;;;;;5105206;28;20211;-53
2022/07/17 08:19:45;;;;;;;6.00;1.73;;;26.30;84.20;;;;;;5103273;28;20211;-53
2022/07/17 08:22:13;;;;;;;3.72;1.50;;;26.10;83.90;;;;;;5107060;28;20199;-53
2022/07/17 08:24:41;;;;;;;5.75;1.65;;;25.60;83.50;;;;;;5108586;28;20239;-51
2022/07/17 08:27:09;;;;;;;3.95;1.70;;;25.30;84.80;;;;;;5111370;28;20200;-53
2022/07/17 08:29:37;;;;;;;5.10;1.65;;;25.50;87.40;;;;;;5111651;28;20608;-53
2022/07/17 08:32:27;;;;;;;3.70;1.52;;;25.50;85.80;;;;;;5106691;28;20257;-52
2022/07/17 08:34:55;;;;;;;4.97;1.63;;;25.40;85.90;;;;;;5111056;28;20223;-53
2022/07/17 08:37:24;;;;;;;3.97;1.75;;;25.20;84.60;;;;;;5110859;28;20291;-52
2022/07/17 08:39:52;;;;;;;6.35;1.80;;;25.10;86.90;;;;;;5110822;28;20195;-53
2022/07/17 08:42:20;;;;;;;5.47;1.60;;;25.00;84.80;;;;;;5111244;28;20233;-53
2022/07/17 08:44:48;;;;;;;4.45;1.48;;;25.10;86.70;;;;;;5111848;28;20223;-53
2022/07/17 08:47:17;;;;;;;5.80;1.80;;;25.10;86.10;;;;;;5111801;28;20621;-52
2022/07/17 08:49:49;;;;;;;4.80;1.40;;;25.00;84.30;;;;;;5112319;28;20652;-53
2022/07/17 08:52:17;;;;;;;5.13;1.70;;;25.00;85.10;;;;;;5111303;28;20215;-53
2022/07/17 08:54:45;;;;;;;3.88;1.35;;;24.90;84.50;;;;;;5104828;28;20230;-53
2022/07/17 08:57:16;;;;;;;5.10;1.80;;;24.70;82.20;;;;;;5108330;28;20246;-51
2022/07/17 08:59:47;;;;;;;3.08;1.42;;;24.70;83.00;;;;;;5111300;28;20200;-52
2022/07/17 09:02:16;;;;;;;3.97;1.70;;;24.80;82.40;;;;;;5111690;28;20737;-52
2022/07/17 09:04:55;;;;;;;3.70;1.55;;;24.80;81.80;;;;;;5110991;28;20251;-52
2022/07/17 09:07:23;;;;;;;3.60;1.58;;;24.90;81.70;;;;;;5110739;28;20202;-53
2022/07/17 09:09:52;;;;;;;4.75;1.40;;;24.60;79.20;;;;;;5110938;28;20585;-52
2022/07/17 09:12:26;;;;;;;6.00;1.30;;;24.60;81.10;;;;;;5110553;28;20290;-52
2022/07/17 09:14:55;;;;;;;4.43;1.30;;;24.60;81.30;;;;;;5110782;28;20342;-51
2022/07/17 09:17:26;;;;;;;3.63;1.45;;;24.60;79.40;;;;;;5109147;28;20199;-52
2022/07/17 09:19:56;;;;;;;1.98;1.08;;;24.50;78.30;;;;;;5108746;28;20233;-53
2022/07/17 09:22:25;;;;;;;3.50;1.38;;;24.50;78.20;;;;;;5107161;28;20211;-52
2022/07/17 09:24:55;;;;;;;2.70;1.55;;;24.60;78.30;;;;;;5111055;28;20273;-51
2022/07/17 09:27:32;;;;;;;4.10;1.52;;;24.60;76.70;;;;;;5107091;28;20199;-53
2022/07/17 09:30:03;;;;;;;2.95;1.60;;;24.50;76.70;;;;;;5109510;28;20256;-51
2022/07/17 09:32:34;;;;;;;1.95;1.38;;;24.60;76.60;;;;;;5103975;27;20252;-53
2022/07/17 09:35:06;;;;;;;2.55;1.65;;;24.60;75.10;;;;;;5107322;28;20351;-53
2022/07/17 09:37:36;;;;;;;3.40;1.35;;;24.80;74.00;;;;;;5107680;28;20204;-52
2022/07/17 09:40:10;;;;;;;3.38;1.23;;;24.90;74.30;;;;;;5105945;27;20207;-52
2022/07/17 09:42:38;;;;;;;3.00;1.17;;;25.00;70.50;;;;;;5101823;28;20210;-51
2022/07/17 09:45:09;;;;;;;3.45;1.10;;;25.00;73.40;;;;;;5107898;28;20235;-52
2022/07/17 09:47:39;;;;;;;2.67;1.50;;;25.00;74.40;;;;;;5110868;28;20208;-52
2022/07/17 09:50:09;;;;;;;3.95;1.58;;;25.10;74.10;;;;;;5111780;28;20219;-52
2022/07/17 09:52:38;;;;;;;1.23;1.05;;;25.20;71.80;;;;;;5109612;28;20254;-52
2022/07/17 09:55:06;;;;;;;2.90;1.30;;;25.30;73.00;;;;;;5110468;28;20288;-52
2022/07/17 09:57:55;;;;;;;3.50;1.45;;;25.30;74.60;;;;;;5110886;28;20398;-52
2022/07/17 10:00:24;;;;;;;2.65;1.30;;;25.40;76.30;;;;;;5110981;28;20229;-52
2022/07/17 10:02:53;;;;;;;2.38;1.50;;;25.40;73.80;;;;;;5109971;28;20231;-52
2022/07/17 10:05:23;;;;;;;4.70;1.60;;;25.30;72.20;;;;;;5108414;28;20311;-52
2022/07/17 10:07:51;;;;;;;4.32;1.60;;;25.20;76.20;;;;;;5110123;28;20248;-53
2022/07/17 10:10:19;;;;;;;4.63;1.48;;;25.30;75.90;;;;;;5110400;28;20704;-52
2022/07/17 10:12:51;;;;;;;5.70;1.50;;;25.30;77.20;;;;;;5110671;28;20287;-52
2022/07/17 10:15:24;;;;;;;3.70;1.50;;;25.50;77.10;;;;;;5110534;28;20276;-52
2022/07/17 10:17:52;;;;;;;3.13;1.38;;;25.50;75.50;;;;;;5110473;28;20211;-53
2022/07/17 10:20:27;;;;;;;3.88;1.48;;;25.40;75.00;;;;;;5108042;28;20224;-52
2022/07/17 10:22:55;;;;;;;4.07;1.65;;;25.20;74.60;;;;;;5110205;28;20268;-52
2022/07/17 10:25:24;;;;;;;1.52;1.23;;;25.10;75.10;;;;;;5111408;28;20230;-52
2022/07/17 10:27:54;;;;;;;2.90;1.45;;;25.10;76.50;;;;;;5110546;28;20713;-52
2022/07/17 10:30:26;;;;;;;3.17;1.30;;;25.20;75.20;;;;;;5110022;28;20696;-51
2022/07/17 10:32:58;;;;;;;4.38;1.50;;;25.20;75.20;;;;;;5110888;28;20222;-52
2022/07/17 10:35:28;;;;;;;2.47;1.20;;;25.30;74.30;;;;;;5110156;28;20227;-53
2022/07/17 10:37:59;;;;;;;3.75;1.33;;;25.10;71.60;;;;;;5109862;28;20266;-53
2022/07/17 10:40:29;;;;;;;2.83;1.25;;;25.20;73.70;;;;;;5110026;28;20246;-52
2022/07/17 10:42:59;;;;;;;3.10;1.20;;;25.30;72.20;;;;;;5109719;28;20725;-52
2022/07/17 10:45:33;;;;;;;3.50;1.23;;;25.40;72.40;;;;;;5110040;27;20242;-53
2022/07/17 10:48:04;;;;;;;2.72;1.20;;;25.50;71.50;;;;;;5109910;28;20647;-52
2022/07/17 10:50:36;;;;;;;1.88;1.17;;;25.60;65.90;;;;;;5110162;28;20703;-52
2022/07/17 10:53:15;;;;;;;4.55;1.15;;;25.60;67.00;;;;;;5109348;28;20204;-51
2022/07/17 10:55:52;;;;;;;3.83;1.13;;;25.60;68.00;;;;;;5110222;28;20231;-52
2022/07/17 10:58:25;;;;;;;3.92;1.60;;;25.70;69.40;;;;;;5110259;28;20273;-52
2022/07/17 11:01:02;;;;;;;3.75;1.10;;;25.80;69.70;;;;;;5109984;28;20328;-51
2022/07/17 11:03:33;;;;;;;3.22;1.27;;;25.80;71.30;;;;;;5107404;28;20575;-52
2022/07/17 11:06:11;;;;;;;5.28;1.80;;;25.80;71.40;;;;;;5109682;28;20231;-52
2022/07/17 11:08:49;;;;;;;2.65;1.23;;;25.80;72.50;;;;;;5109797;28;20257;-52
2022/07/17 11:11:19;;;;;;;5.45;1.52;;;25.90;74.50;;;;;;5109896;28;20215;-52
2022/07/17 11:13:54;;;;;;;5.03;1.70;;;25.90;72.50;;;;;;5105064;28;20621;-52
2022/07/17 11:16:26;;;;;;;3.00;1.38;;;25.90;71.30;;;;;;5109933;28;20207;-52
2022/07/17 11:18:55;;;;;;;2.25;1.10;;;25.90;70.80;;;;;;5107232;28;20200;-52
2022/07/17 11:21:25;;;;;;;2.15;1.25;;;25.80;69.60;;;;;;5109759;28;20200;-52
2022/07/17 11:23:54;;;;;;;3.25;1.33;;;25.80;72.30;;;;;;5109749;28;20203;-52
2022/07/17 11:26:25;;;;;;;3.70;1.50;;;25.70;70.70;;;;;;5109240;28;20208;-52
2022/07/17 11:28:54;;;;;;;2.80;1.20;;;25.70;70.00;;;;;;5109213;28;20211;-52
2022/07/17 11:31:29;;;;;;;3.17;1.27;;;25.60;70.10;;;;;;5109563;28;20272;-52
2022/07/17 11:33:59;;;;;;;2.28;1.40;;;25.80;70.20;;;;;;5109750;28;20208;-52
2022/07/17 11:36:31;;;;;;;3.50;1.25;;;25.80;68.90;;;;;;5109524;28;20212;-52
2022/07/17 11:39:02;;;;;;;11.27;1.30;;;25.80;71.50;;;;;;5108835;28;20218;-51
2022/07/17 11:41:35;;;;;;;2.83;1.30;;;25.90;72.00;;;;;;5109461;28;20195;-52
2022/07/17 11:44:05;;;;;;;3.97;1.40;;;26.00;69.90;;;;;;5108637;28;20316;-52
2022/07/17 11:46:34;;;;;;;1.67;1.05;;;26.10;70.90;;;;;;5109428;28;20280;-52
2022/07/17 11:49:03;;;;;;;5.03;1.60;;;25.90;70.70;;;;;;5109156;28;20208;-52
2022/07/17 11:51:38;;;;;;;2.92;1.40;;;25.90;68.80;;;;;;5108052;28;20272;-52
2022/07/17 11:54:09;;;;;;;2.78;1.52;;;26.00;68.80;;;;;;5109029;28;20583;-52
2022/07/17 11:56:37;;;;;;;3.33;1.65;;;26.00;68.10;;;;;;5109005;28;20195;-52
2022/07/17 11:59:06;;;;;;;3.55;1.50;;;26.00;69.70;;;;;;5108003;28;20207;-52
2022/07/17 12:01:42;;;;;;;2.65;1.30;;;25.90;69.20;;;;;;5108796;28;20196;-52
2022/07/17 12:04:12;;;;;;;3.97;1.45;;;25.90;68.50;;;;;;5108249;28;20235;-52
2022/07/17 12:06:46;;;;;;;1.80;1.40;;;26.00;68.90;;;;;;5104900;28;20227;-51
2022/07/17 12:09:14;;;;;;;2.33;1.30;;;25.90;69.80;;;;;;5108544;28;20731;-52
2022/07/17 12:11:47;;;;;;;2.85;1.35;;;26.10;69.70;;;;;;5108654;28;20227;-52
2022/07/17 12:14:15;;;;;;;3.35;1.33;;;26.20;70.30;;;;;;5108704;28;20285;-52
2022/07/17 12:16:44;;;;;;;2.92;1.45;;;26.20;69.20;;;;;;5108292;28;20208;-52
2022/07/17 12:19:15;;;;;;;5.50;1.40;;;26.20;68.80;;;;;;5108493;28;20235;-52
2022/07/17 12:21:54;;;;;;;1.63;1.23;;;26.20;68.20;;;;;;5108088;28;20204;-52
2022/07/17 12:24:26;;;;;;;6.35;1.42;;;26.20;69.60;;;;;;5108199;28;20322;-52
2022/07/17 12:26:56;;;;;;;3.55;1.30;;;26.20;68.30;;;;;;5107799;28;20196;-52
2022/07/17 12:29:25;;;;;;;2.70;1.20;;;26.20;68.20;;;;;;5108892;28;20199;-52
2022/07/17 12:32:08;;;;;;;2.42;1.33;;;26.20;68.60;;;;;;5108339;28;20224;-52
2022/07/17 12:34:44;;;;;;;3.53;1.50;;;26.10;66.60;;;;;;5108267;28;20726;-52
2022/07/17 12:37:15;;;;;;;1.85;1.15;;;26.10;66.70;;;;;;5108098;28;20294;-52
2022/07/17 12:39:44;;;;;;;3.63;1.67;;;26.10;67.70;;;;;;5106828;28;20207;-52
2022/07/17 12:42:12;;;;;;;3.05;1.30;;;26.10;68.30;;;;;;5108549;28;20216;-52
2022/07/17 12:44:41;;;;;;;2.97;1.40;;;26.10;68.80;;;;;;5108322;28;20311;-52
2022/07/17 12:47:10;;;;;;;3.28;1.30;;;26.20;67.80;;;;;;5108835;28;20203;-52
2022/07/17 12:49:39;;;;;;;2.15;1.20;;;26.20;66.90;;;;;;5108687;28;20253;-52
2022/07/17 12:52:09;;;;;;;3.03;1.40;;;26.10;66.20;;;;;;5107653;28;20238;-52
2022/07/17 12:54:39;;;;;;;1.85;1.45;;;26.10;66.30;;;;;;5108138;28;20219;-52
2022/07/17 12:57:08;;;;;;;3.45;1.42;;;26.10;66.70;;;;;;5108690;28;20574;-52
2022/07/17 12:59:36;;;;;;;2.65;1.55;;;26.10;66.70;;;;;;5107745;28;20733;-52